sensor_id;sensor_type;location;lat;lon;timestamp;temperature;humidity
62991;DHT22;49084;48.204;16.202;2023-09-08T00:01:55;13.30;99.90
62991;DHT22;49084;48.204;16.202;2023-09-08T00:04:21;13.30;99.90
62991;DHT22;49084;48.204;16.202;2023-09-08T00:06:47;13.20;99.90
62991;DHT22;49084;48.204;16.202;2023-09-08T00:09:12;13.30;99.90
62991;DHT22;49084;48.204;16.202;2023-09-08T00:11:38;13.30;99.90
62991;DHT22;49084;48.204;16.202;2023-09-08T00:14:04;13.30;99.90
62991;DHT22;49084;48.204;16.202;2023-09-08T00:16:29;13.20;99.90
62991;DHT22;49084;48.204;16.202;2023-09-08T00:18:56;13.20;99.90
62991;DHT22;49084;48.204;16.202;2023-09-08T00:21:24;13.30;99.90
62991;DHT22;49084;48.204;16.202;2023-09-08T00:23:50;13.30;99.90
62991;DHT22;49084;48.204;16.202;2023-09-08T00:26:16;13.20;99.90
62991;DHT22;49084;48.204;16.202;2023-09-08T00:28:42;13.30;99.90
62991;DHT22;49084;48.204;16.202;2023-09-08T00:31:07;13.20;99.90
62991;DHT22;49084;48.204;16.202;2023-09-08T00:33:33;13.30;99.90
62991;DHT22;49084;48.204;16.202;2023-09-08T00:35:58;13.20;99.90
62991;DHT22;49084;48.204;16.202;2023-09-08T00:38:24;13.20;99.90
62991;DHT22;49084;48.204;16.202;2023-09-08T00:40:50;13.10;99.90
62991;DHT22;49084;48.204;16.202;2023-09-08T00:43:17;13.10;99.90
62991;DHT22;49084;48.204;16.202;2023-09-08T00:45:43;13.10;99.90
62991;DHT22;49084;48.204;16.202;2023-09-08T00:48:09;13.10;99.90
62991;DHT22;49084;48.204;16.202;2023-09-08T00:50:36;13.10;99.90
62991;DHT22;49084;48.204;16.202;2023-09-08T00:53:06;13.10;99.90
62991;DHT22;49084;48.204;16.202;2023-09-08T00:55:32;13.10;99.90
62991;DHT22;49084;48.204;16.202;2023-09-08T00:57:59;13.10;99.90
62991;DHT22;49084;48.204;16.202;2023-09-08T01:00:25;13.10;99.90
62991;DHT22;49084;48.204;16.202;2023-09-08T01:02:51;13.10;99.90
62991;DHT22;49084;48.204;16.202;2023-09-08T01:05:17;13.10;99.90
62991;DHT22;49084;48.204;16.202;2023-09-08T01:07:44;13.10;99.90
62991;DHT22;49084;48.204;16.202;2023-09-08T01:10:10;13.00;99.90
62991;DHT22;49084;48.204;16.202;2023-09-08T01:12:36;13.00;99.90
62991;DHT22;49084;48.204;16.202;2023-09-08T01:15:03;13.00;99.90
62991;DHT22;49084;48.204;16.202;2023-09-08T01:17:30;13.00;99.90
62991;DHT22;49084;48.204;16.202;2023-09-08T01:19:56;12.90;99.90
62991;DHT22;49084;48.204;16.202;2023-09-08T01:22:51;13.00;99.90
62991;DHT22;49084;48.204;16.202;2023-09-08T01:25:29;12.90;99.90
62991;DHT22;49084;48.204;16.202;2023-09-08T01:27:58;12.90;99.90
62991;DHT22;49084;48.204;16.202;2023-09-08T01:30:28;12.90;99.90
62991;DHT22;49084;48.204;16.202;2023-09-08T01:32:54;12.90;99.90
62991;DHT22;49084;48.204;16.202;2023-09-08T01:35:21;12.90;99.90
62991;DHT22;49084;48.204;16.202;2023-09-08T01:37:48;12.80;99.90
62991;DHT22;49084;48.204;16.202;2023-09-08T01:40:14;12.80;99.90
62991;DHT22;49084;48.204;16.202;2023-09-08T01:42:40;12.80;99.90
62991;DHT22;49084;48.204;16.202;2023-09-08T01:45:07;12.80;99.90
62991;DHT22;49084;48.204;16.202;2023-09-08T01:47:33;12.80;99.90
62991;DHT22;49084;48.204;16.202;2023-09-08T01:49:59;12.70;99.90
62991;DHT22;49084;48.204;16.202;2023-09-08T01:52:25;12.70;99.90
62991;DHT22;49084;48.204;16.202;2023-09-08T01:54:51;12.70;99.90
62991;DHT22;49084;48.204;16.202;2023-09-08T01:57:17;12.70;99.90
62991;DHT22;49084;48.204;16.202;2023-09-08T01:59:43;12.60;99.90
62991;DHT22;49084;48.204;16.202;2023-09-08T02:02:10;12.60;99.90
62991;DHT22;49084;48.204;16.202;2023-09-08T02:04:36;12.60;99.90
62991;DHT22;49084;48.204;16.202;2023-09-08T02:07:01;12.50;99.90
62991;DHT22;49084;48.204;16.202;2023-09-08T02:09:36;12.40;99.90
62991;DHT22;49084;48.204;16.202;2023-09-08T02:12:02;12.30;99.90
62991;DHT22;49084;48.204;16.202;2023-09-08T02:14:28;12.20;99.90
62991;DHT22;49084;48.204;16.202;2023-09-08T02:16:55;12.20;99.90
62991;DHT22;49084;48.204;16.202;2023-09-08T02:19:20;12.30;99.90
62991;DHT22;49084;48.204;16.202;2023-09-08T02:21:46;12.40;99.90
62991;DHT22;49084;48.204;16.202;2023-09-08T02:24:12;12.30;99.90
62991;DHT22;49084;48.204;16.202;2023-09-08T02:26:40;12.40;99.90
62991;DHT22;49084;48.204;16.202;2023-09-08T02:29:06;12.30;99.90
62991;DHT22;49084;48.204;16.202;2023-09-08T02:31:33;12.30;99.90
62991;DHT22;49084;48.204;16.202;2023-09-08T02:33:58;12.30;99.90
62991;DHT22;49084;48.204;16.202;2023-09-08T02:36:24;12.30;99.90
62991;DHT22;49084;48.204;16.202;2023-09-08T02:38:53;12.30;99.90
62991;DHT22;49084;48.204;16.202;2023-09-08T02:41:19;12.20;99.90
62991;DHT22;49084;48.204;16.202;2023-09-08T02:43:45;12.20;99.90
62991;DHT22;49084;48.204;16.202;2023-09-08T02:46:11;12.20;99.90
62991;DHT22;49084;48.204;16.202;2023-09-08T02:48:37;12.20;99.90
62991;DHT22;49084;48.204;16.202;2023-09-08T02:51:03;12.10;99.90
62991;DHT22;49084;48.204;16.202;2023-09-08T02:53:28;12.10;99.90
62991;DHT22;49084;48.204;16.202;2023-09-08T02:55:55;12.10;99.90
62991;DHT22;49084;48.204;16.202;2023-09-08T02:58:21;12.10;99.90
62991;DHT22;49084;48.204;16.202;2023-09-08T03:00:46;12.00;99.90
62991;DHT22;49084;48.204;16.202;2023-09-08T03:03:12;12.00;99.90
62991;DHT22;49084;48.204;16.202;2023-09-08T03:05:37;12.00;99.90
62991;DHT22;49084;48.204;16.202;2023-09-08T03:08:03;12.00;99.90
62991;DHT22;49084;48.204;16.202;2023-09-08T03:10:30;12.00;99.90
62991;DHT22;49084;48.204;16.202;2023-09-08T03:13:02;12.00;99.90
62991;DHT22;49084;48.204;16.202;2023-09-08T03:15:28;11.90;99.90
62991;DHT22;49084;48.204;16.202;2023-09-08T03:17:58;11.90;99.90
62991;DHT22;49084;48.204;16.202;2023-09-08T03:20:24;11.90;99.90
62991;DHT22;49084;48.204;16.202;2023-09-08T03:22:51;11.90;99.90
62991;DHT22;49084;48.204;16.202;2023-09-08T03:25:17;11.90;99.90
62991;DHT22;49084;48.204;16.202;2023-09-08T03:27:42;12.00;99.90
62991;DHT22;49084;48.204;16.202;2023-09-08T03:30:08;11.90;99.90
62991;DHT22;49084;48.204;16.202;2023-09-08T03:32:34;11.90;99.90
62991;DHT22;49084;48.204;16.202;2023-09-08T03:35:00;12.00;99.90
62991;DHT22;49084;48.204;16.202;2023-09-08T03:37:25;12.00;99.90
62991;DHT22;49084;48.204;16.202;2023-09-08T03:39:54;11.90;99.90
62991;DHT22;49084;48.204;16.202;2023-09-08T03:42:19;11.90;99.90
62991;DHT22;49084;48.204;16.202;2023-09-08T03:44:45;11.90;99.90
62991;DHT22;49084;48.204;16.202;2023-09-08T03:47:10;11.90;99.90
62991;DHT22;49084;48.204;16.202;2023-09-08T03:49:36;11.80;99.90
62991;DHT22;49084;48.204;16.202;2023-09-08T03:52:02;11.80;99.90
62991;DHT22;49084;48.204;16.202;2023-09-08T03:54:27;11.80;99.90
62991;DHT22;49084;48.204;16.202;2023-09-08T03:56:53;11.80;99.90
62991;DHT22;49084;48.204;16.202;2023-09-08T03:59:19;11.80;99.90
62991;DHT22;49084;48.204;16.202;2023-09-08T04:01:44;11.80;99.90
62991;DHT22;49084;48.204;16.202;2023-09-08T04:04:10;11.80;99.90
62991;DHT22;49084;48.204;16.202;2023-09-08T04:06:36;11.80;99.90
62991;DHT22;49084;48.204;16.202;2023-09-08T04:09:01;11.80;99.90
62991;DHT22;49084;48.204;16.202;2023-09-08T04:11:27;11.80;99.90
62991;DHT22;49084;48.204;16.202;2023-09-08T04:13:52;11.80;99.90
62991;DHT22;49084;48.204;16.202;2023-09-08T04:16:18;11.70;99.90
62991;DHT22;49084;48.204;16.202;2023-09-08T04:18:44;11.70;99.90
62991;DHT22;49084;48.204;16.202;2023-09-08T04:21:10;11.70;99.90
62991;DHT22;49084;48.204;16.202;2023-09-08T04:23:35;11.70;99.90
62991;DHT22;49084;48.204;16.202;2023-09-08T04:26:01;11.70;99.90
62991;DHT22;49084;48.204;16.202;2023-09-08T04:28:27;11.70;99.90
62991;DHT22;49084;48.204;16.202;2023-09-08T04:30:52;11.70;99.90
62991;DHT22;49084;48.204;16.202;2023-09-08T04:33:18;11.70;99.90
62991;DHT22;49084;48.204;16.202;2023-09-08T04:35:44;11.70;99.90
62991;DHT22;49084;48.204;16.202;2023-09-08T04:38:09;11.70;99.90
62991;DHT22;49084;48.204;16.202;2023-09-08T04:40:35;11.80;99.90
62991;DHT22;49084;48.204;16.202;2023-09-08T04:43:01;11.80;99.90
62991;DHT22;49084;48.204;16.202;2023-09-08T04:45:26;11.80;99.90
62991;DHT22;49084;48.204;16.202;2023-09-08T04:47:52;11.80;99.90
62991;DHT22;49084;48.204;16.202;2023-09-08T04:50:17;11.80;99.90
62991;DHT22;49084;48.204;16.202;2023-09-08T04:52:43;11.80;99.90
62991;DHT22;49084;48.204;16.202;2023-09-08T04:55:10;11.80;99.90
62991;DHT22;49084;48.204;16.202;2023-09-08T04:57:35;11.80;99.90
62991;DHT22;49084;48.204;16.202;2023-09-08T05:00:02;11.90;99.90
62991;DHT22;49084;48.204;16.202;2023-09-08T05:02:28;12.00;99.90
62991;DHT22;49084;48.204;16.202;2023-09-08T05:04:54;12.00;99.90
62991;DHT22;49084;48.204;16.202;2023-09-08T05:07:20;12.10;99.90
62991;DHT22;49084;48.204;16.202;2023-09-08T05:09:45;12.10;99.90
62991;DHT22;49084;48.204;16.202;2023-09-08T05:12:11;12.20;99.90
62991;DHT22;49084;48.204;16.202;2023-09-08T05:14:37;12.20;99.90
62991;DHT22;49084;48.204;16.202;2023-09-08T05:17:03;12.30;99.90
62991;DHT22;49084;48.204;16.202;2023-09-08T05:19:28;12.40;99.90
62991;DHT22;49084;48.204;16.202;2023-09-08T05:21:55;12.60;99.90
62991;DHT22;49084;48.204;16.202;2023-09-08T05:24:20;12.70;99.90
62991;DHT22;49084;48.204;16.202;2023-09-08T05:26:46;12.90;99.90
62991;DHT22;49084;48.204;16.202;2023-09-08T05:29:12;13.00;99.90
62991;DHT22;49084;48.204;16.202;2023-09-08T05:31:38;13.30;99.90
62991;DHT22;49084;48.204;16.202;2023-09-08T05:34:04;13.50;99.90
62991;DHT22;49084;48.204;16.202;2023-09-08T05:36:30;13.70;99.90
62991;DHT22;49084;48.204;16.202;2023-09-08T05:38:56;14.00;99.90
62991;DHT22;49084;48.204;16.202;2023-09-08T05:41:22;14.20;99.90
62991;DHT22;49084;48.204;16.202;2023-09-08T05:43:48;14.50;99.90
62991;DHT22;49084;48.204;16.202;2023-09-08T05:46:13;14.80;99.90
62991;DHT22;49084;48.204;16.202;2023-09-08T05:48:39;15.00;99.90
62991;DHT22;49084;48.204;16.202;2023-09-08T05:51:05;15.30;99.90
62991;DHT22;49084;48.204;16.202;2023-09-08T05:53:32;15.60;99.90
62991;DHT22;49084;48.204;16.202;2023-09-08T05:55:58;15.90;99.90
62991;DHT22;49084;48.204;16.202;2023-09-08T05:58:24;16.20;99.90
62991;DHT22;49084;48.204;16.202;2023-09-08T06:00:55;16.50;99.90
62991;DHT22;49084;48.204;16.202;2023-09-08T06:03:21;16.90;99.90
62991;DHT22;49084;48.204;16.202;2023-09-08T06:05:46;17.20;99.90
62991;DHT22;49084;48.204;16.202;2023-09-08T06:08:12;17.50;99.90
62991;DHT22;49084;48.204;16.202;2023-09-08T06:10:39;17.80;99.90
62991;DHT22;49084;48.204;16.202;2023-09-08T06:13:04;18.20;99.90
62991;DHT22;49084;48.204;16.202;2023-09-08T06:15:30;18.70;99.90
62991;DHT22;49084;48.204;16.202;2023-09-08T06:17:56;19.00;99.90
62991;DHT22;49084;48.204;16.202;2023-09-08T06:20:21;19.30;99.90
62991;DHT22;49084;48.204;16.202;2023-09-08T06:22:47;19.80;99.90
62991;DHT22;49084;48.204;16.202;2023-09-08T06:25:13;20.00;99.90
62991;DHT22;49084;48.204;16.202;2023-09-08T06:27:39;20.40;99.90
62991;DHT22;49084;48.204;16.202;2023-09-08T06:30:05;20.70;99.90
62991;DHT22;49084;48.204;16.202;2023-09-08T06:32:31;21.10;99.90
62991;DHT22;49084;48.204;16.202;2023-09-08T06:34:56;21.40;99.90
62991;DHT22;49084;48.204;16.202;2023-09-08T06:37:22;21.70;99.90
62991;DHT22;49084;48.204;16.202;2023-09-08T06:39:48;21.90;99.90
62991;DHT22;49084;48.204;16.202;2023-09-08T06:42:13;22.20;99.90
62991;DHT22;49084;48.204;16.202;2023-09-08T06:44:39;22.40;99.90
62991;DHT22;49084;48.204;16.202;2023-09-08T06:47:05;22.70;99.00
62991;DHT22;49084;48.204;16.202;2023-09-08T06:49:32;22.90;97.90
62991;DHT22;49084;48.204;16.202;2023-09-08T06:51:58;23.10;97.50
62991;DHT22;49084;48.204;16.202;2023-09-08T06:54:24;23.30;96.30
62991;DHT22;49084;48.204;16.202;2023-09-08T06:56:49;23.60;95.30
62991;DHT22;49084;48.204;16.202;2023-09-08T06:59:15;24.00;94.40
62991;DHT22;49084;48.204;16.202;2023-09-08T07:01:40;24.10;93.70
62991;DHT22;49084;48.204;16.202;2023-09-08T07:04:06;24.10;93.00
62991;DHT22;49084;48.204;16.202;2023-09-08T07:06:32;24.10;92.60
62991;DHT22;49084;48.204;16.202;2023-09-08T07:08:57;24.00;92.30
62991;DHT22;49084;48.204;16.202;2023-09-08T07:11:23;24.20;91.90
62991;DHT22;49084;48.204;16.202;2023-09-08T07:13:48;24.50;91.10
62991;DHT22;49084;48.204;16.202;2023-09-08T07:16:14;24.60;90.40
62991;DHT22;49084;48.204;16.202;2023-09-08T07:18:40;25.00;89.90
62991;DHT22;49084;48.204;16.202;2023-09-08T07:21:05;25.10;88.40
62991;DHT22;49084;48.204;16.202;2023-09-08T07:23:31;25.00;87.00
62991;DHT22;49084;48.204;16.202;2023-09-08T07:25:57;25.10;86.90
62991;DHT22;49084;48.204;16.202;2023-09-08T07:28:22;25.10;86.80
62991;DHT22;49084;48.204;16.202;2023-09-08T07:30:48;25.50;85.70
62991;DHT22;49084;48.204;16.202;2023-09-08T07:33:14;25.60;85.00
62991;DHT22;49084;48.204;16.202;2023-09-08T07:35:40;25.90;83.80
62991;DHT22;49084;48.204;16.202;2023-09-08T07:38:06;26.10;82.40
62991;DHT22;49084;48.204;16.202;2023-09-08T07:40:33;26.40;80.30
62991;DHT22;49084;48.204;16.202;2023-09-08T07:42:59;26.50;80.00
62991;DHT22;49084;48.204;16.202;2023-09-08T07:45:25;26.80;78.70
62991;DHT22;49084;48.204;16.202;2023-09-08T07:47:51;26.80;77.60
62991;DHT22;49084;48.204;16.202;2023-09-08T07:50:18;26.90;76.20
62991;DHT22;49084;48.204;16.202;2023-09-08T07:52:47;27.10;76.10
62991;DHT22;49084;48.204;16.202;2023-09-08T07:55:13;27.20;75.60
62991;DHT22;49084;48.204;16.202;2023-09-08T07:57:38;27.30;74.40
62991;DHT22;49084;48.204;16.202;2023-09-08T08:00:04;27.60;73.50
62991;DHT22;49084;48.204;16.202;2023-09-08T08:02:30;28.10;72.50
62991;DHT22;49084;48.204;16.202;2023-09-08T08:04:56;28.20;71.40
62991;DHT22;49084;48.204;16.202;2023-09-08T08:07:22;28.10;70.20
62991;DHT22;49084;48.204;16.202;2023-09-08T08:09:48;28.20;70.10
62991;DHT22;49084;48.204;16.202;2023-09-08T08:12:14;28.50;69.30
62991;DHT22;49084;48.204;16.202;2023-09-08T08:14:39;28.70;68.10
62991;DHT22;49084;48.204;16.202;2023-09-08T08:17:05;28.70;66.40
62991;DHT22;49084;48.204;16.202;2023-09-08T08:19:31;28.70;67.30
62991;DHT22;49084;48.204;16.202;2023-09-08T08:21:56;28.90;66.90
62991;DHT22;49084;48.204;16.202;2023-09-08T08:24:23;29.30;66.00
62991;DHT22;49084;48.204;16.202;2023-09-08T08:26:48;29.10;64.40
62991;DHT22;49084;48.204;16.202;2023-09-08T08:29:17;29.00;63.40
62991;DHT22;49084;48.204;16.202;2023-09-08T08:31:42;28.50;64.00
62991;DHT22;49084;48.204;16.202;2023-09-08T08:34:08;28.70;65.20
62991;DHT22;49084;48.204;16.202;2023-09-08T08:36:34;29.30;64.90
62991;DHT22;49084;48.204;16.202;2023-09-08T08:39:00;29.80;62.60
62991;DHT22;49084;48.204;16.202;2023-09-08T08:41:26;30.00;61.70
62991;DHT22;49084;48.204;16.202;2023-09-08T08:43:53;30.10;61.00
62991;DHT22;49084;48.204;16.202;2023-09-08T08:46:21;30.50;60.10
62991;DHT22;49084;48.204;16.202;2023-09-08T08:48:48;30.40;59.30
62991;DHT22;49084;48.204;16.202;2023-09-08T08:51:18;30.50;58.70
62991;DHT22;49084;48.204;16.202;2023-09-08T08:53:44;30.10;59.00
62991;DHT22;49084;48.204;16.202;2023-09-08T08:56:10;30.00;59.70
62991;DHT22;49084;48.204;16.202;2023-09-08T08:58:37;30.70;59.00
62991;DHT22;49084;48.204;16.202;2023-09-08T09:01:04;31.70;57.80
62991;DHT22;49084;48.204;16.202;2023-09-08T09:03:31;31.60;55.90
62991;DHT22;49084;48.204;16.202;2023-09-08T09:06:00;31.20;56.60
62991;DHT22;49084;48.204;16.202;2023-09-08T09:08:26;31.50;56.50
62991;DHT22;49084;48.204;16.202;2023-09-08T09:10:53;32.10;55.60
62991;DHT22;49084;48.204;16.202;2023-09-08T09:13:18;32.10;53.90
62991;DHT22;49084;48.204;16.202;2023-09-08T09:15:44;31.70;54.80
62991;DHT22;49084;48.204;16.202;2023-09-08T09:18:12;31.90;53.50
62991;DHT22;49084;48.204;16.202;2023-09-08T09:20:37;31.90;54.10
62991;DHT22;49084;48.204;16.202;2023-09-08T09:23:03;31.40;53.50
62991;DHT22;49084;48.204;16.202;2023-09-08T09:25:30;31.40;54.00
62991;DHT22;49084;48.204;16.202;2023-09-08T09:27:58;31.70;54.00
62991;DHT22;49084;48.204;16.202;2023-09-08T09:30:25;32.20;53.40
62991;DHT22;49084;48.204;16.202;2023-09-08T09:33:01;32.10;51.50
62991;DHT22;49084;48.204;16.202;2023-09-08T09:38:06;32.10;51.00
62991;DHT22;49084;48.204;16.202;2023-09-08T09:40:33;32.00;52.30
62991;DHT22;49084;48.204;16.202;2023-09-08T09:42:59;32.50;50.70
62991;DHT22;49084;48.204;16.202;2023-09-08T09:45:27;32.70;51.30
62991;DHT22;49084;48.204;16.202;2023-09-08T09:47:54;33.30;50.20
62991;DHT22;49084;48.204;16.202;2023-09-08T09:50:31;33.60;48.90
62991;DHT22;49084;48.204;16.202;2023-09-08T09:53:08;32.70;49.20
62991;DHT22;49084;48.204;16.202;2023-09-08T09:55:34;32.60;49.40
62991;DHT22;49084;48.204;16.202;2023-09-08T09:58:01;32.30;50.00
62991;DHT22;49084;48.204;16.202;2023-09-08T10:00:30;32.90;49.50
62991;DHT22;49084;48.204;16.202;2023-09-08T10:02:56;33.20;47.40
62991;DHT22;49084;48.204;16.202;2023-09-08T10:05:25;33.70;45.20
62991;DHT22;49084;48.204;16.202;2023-09-08T10:07:51;33.60;44.60
62991;DHT22;49084;48.204;16.202;2023-09-08T10:10:19;33.70;44.90
62991;DHT22;49084;48.204;16.202;2023-09-08T10:12:46;33.70;43.90
62991;DHT22;49084;48.204;16.202;2023-09-08T10:15:19;34.20;42.30
62991;DHT22;49084;48.204;16.202;2023-09-08T10:17:52;33.50;43.00
62991;DHT22;49084;48.204;16.202;2023-09-08T10:20:18;32.80;43.60
62991;DHT22;49084;48.204;16.202;2023-09-08T10:22:56;32.90;43.30
62991;DHT22;49084;48.204;16.202;2023-09-08T10:25:24;33.90;43.30
62991;DHT22;49084;48.204;16.202;2023-09-08T10:27:53;34.70;42.70
62991;DHT22;49084;48.204;16.202;2023-09-08T10:30:20;35.10;41.20
62991;DHT22;49084;48.204;16.202;2023-09-08T10:32:48;35.20;42.10
62991;DHT22;49084;48.204;16.202;2023-09-08T10:35:15;35.70;40.80
62991;DHT22;49084;48.204;16.202;2023-09-08T10:37:42;34.30;39.80
62991;DHT22;49084;48.204;16.202;2023-09-08T10:40:24;34.50;40.50
62991;DHT22;49084;48.204;16.202;2023-09-08T10:43:11;33.90;40.30
62991;DHT22;49084;48.204;16.202;2023-09-08T10:45:43;33.30;41.50
62991;DHT22;49084;48.204;16.202;2023-09-08T10:48:09;33.60;42.00
62991;DHT22;49084;48.204;16.202;2023-09-08T10:50:40;33.80;41.60
62991;DHT22;49084;48.204;16.202;2023-09-08T10:53:17;34.30;40.40
62991;DHT22;49084;48.204;16.202;2023-09-08T10:55:46;34.50;40.40
62991;DHT22;49084;48.204;16.202;2023-09-08T11:00:58;34.80;40.20
62991;DHT22;49084;48.204;16.202;2023-09-08T11:03:43;34.20;40.70
62991;DHT22;49084;48.204;16.202;2023-09-08T11:06:17;33.40;41.30
62991;DHT22;49084;48.204;16.202;2023-09-08T11:08:47;33.50;40.90
62991;DHT22;49084;48.204;16.202;2023-09-08T11:11:15;33.20;41.70
62991;DHT22;49084;48.204;16.202;2023-09-08T11:13:41;33.50;41.80
62991;DHT22;49084;48.204;16.202;2023-09-08T11:16:11;33.80;41.80
62991;DHT22;49084;48.204;16.202;2023-09-08T11:18:36;34.40;40.70
62991;DHT22;49084;48.204;16.202;2023-09-08T11:21:04;34.40;39.50
62991;DHT22;49084;48.204;16.202;2023-09-08T11:23:32;33.90;40.10
62991;DHT22;49084;48.204;16.202;2023-09-08T11:25:59;34.10;40.70
62991;DHT22;49084;48.204;16.202;2023-09-08T11:28:26;34.40;39.70
62991;DHT22;49084;48.204;16.202;2023-09-08T11:30:54;34.70;39.80
62991;DHT22;49084;48.204;16.202;2023-09-08T11:33:21;35.10;39.60
62991;DHT22;49084;48.204;16.202;2023-09-08T11:35:53;34.90;39.70
62991;DHT22;49084;48.204;16.202;2023-09-08T11:38:25;35.50;39.10
62991;DHT22;49084;48.204;16.202;2023-09-08T11:40:52;35.70;38.40
62991;DHT22;49084;48.204;16.202;2023-09-08T11:43:19;35.40;37.90
62991;DHT22;49084;48.204;16.202;2023-09-08T11:45:44;35.10;38.40
62991;DHT22;49084;48.204;16.202;2023-09-08T11:48:10;34.50;38.40
62991;DHT22;49084;48.204;16.202;2023-09-08T11:50:36;34.80;39.10
62991;DHT22;49084;48.204;16.202;2023-09-08T11:53:01;34.90;38.80
62991;DHT22;49084;48.204;16.202;2023-09-08T11:55:28;35.80;38.30
62991;DHT22;49084;48.204;16.202;2023-09-08T11:57:55;35.00;38.20
62991;DHT22;49084;48.204;16.202;2023-09-08T12:00:23;35.20;38.60
62991;DHT22;49084;48.204;16.202;2023-09-08T12:02:51;35.20;37.40
62991;DHT22;49084;48.204;16.202;2023-09-08T12:05:27;34.90;37.90
62991;DHT22;49084;48.204;16.202;2023-09-08T12:07:54;34.70;37.80
62991;DHT22;49084;48.204;16.202;2023-09-08T12:10:22;35.60;37.80
62991;DHT22;49084;48.204;16.202;2023-09-08T12:12:51;35.00;37.60
62991;DHT22;49084;48.204;16.202;2023-09-08T12:18:01;35.90;36.80
62991;DHT22;49084;48.204;16.202;2023-09-08T12:20:27;35.70;35.10
62991;DHT22;49084;48.204;16.202;2023-09-08T12:22:53;35.10;38.60
62991;DHT22;49084;48.204;16.202;2023-09-08T12:25:19;34.50;39.80
62991;DHT22;49084;48.204;16.202;2023-09-08T12:27:46;34.20;38.70
62991;DHT22;49084;48.204;16.202;2023-09-08T12:30:19;34.50;38.00
62991;DHT22;49084;48.204;16.202;2023-09-08T12:32:47;33.80;38.10
62991;DHT22;49084;48.204;16.202;2023-09-08T12:35:21;34.80;38.10
62991;DHT22;49084;48.204;16.202;2023-09-08T12:38:00;35.20;37.20
62991;DHT22;49084;48.204;16.202;2023-09-08T12:40:27;36.10;37.20
62991;DHT22;49084;48.204;16.202;2023-09-08T12:42:53;37.10;36.40
62991;DHT22;49084;48.204;16.202;2023-09-08T12:45:21;37.30;35.80
62991;DHT22;49084;48.204;16.202;2023-09-08T12:47:47;37.10;35.30
62991;DHT22;49084;48.204;16.202;2023-09-08T12:50:12;35.80;35.60
62991;DHT22;49084;48.204;16.202;2023-09-08T12:52:39;35.70;36.00
62991;DHT22;49084;48.204;16.202;2023-09-08T12:55:05;35.60;36.20
62991;DHT22;49084;48.204;16.202;2023-09-08T12:57:31;35.60;36.50
62991;DHT22;49084;48.204;16.202;2023-09-08T12:59:56;35.80;36.00
62991;DHT22;49084;48.204;16.202;2023-09-08T13:02:22;35.60;36.60
62991;DHT22;49084;48.204;16.202;2023-09-08T13:04:48;35.80;36.60
62991;DHT22;49084;48.204;16.202;2023-09-08T13:07:18;36.30;36.90
62991;DHT22;49084;48.204;16.202;2023-09-08T13:09:44;36.30;36.00
62991;DHT22;49084;48.204;16.202;2023-09-08T13:12:10;36.00;36.50
62991;DHT22;49084;48.204;16.202;2023-09-08T13:14:38;35.80;36.30
62991;DHT22;49084;48.204;16.202;2023-09-08T13:17:04;34.60;37.50
62991;DHT22;49084;48.204;16.202;2023-09-08T13:19:31;35.20;38.00
62991;DHT22;49084;48.204;16.202;2023-09-08T13:21:58;35.80;37.40
62991;DHT22;49084;48.204;16.202;2023-09-08T13:24:24;35.80;37.20
62991;DHT22;49084;48.204;16.202;2023-09-08T13:26:50;35.70;37.00
62991;DHT22;49084;48.204;16.202;2023-09-08T13:29:16;35.50;37.00
62991;DHT22;49084;48.204;16.202;2023-09-08T13:31:44;35.80;37.30
62991;DHT22;49084;48.204;16.202;2023-09-08T13:34:10;35.10;37.00
62991;DHT22;49084;48.204;16.202;2023-09-08T13:36:37;34.70;37.60
62991;DHT22;49084;48.204;16.202;2023-09-08T13:39:03;34.10;38.00
62991;DHT22;49084;48.204;16.202;2023-09-08T13:41:50;34.40;38.60
62991;DHT22;49084;48.204;16.202;2023-09-08T13:44:18;35.10;38.60
62991;DHT22;49084;48.204;16.202;2023-09-08T13:46:52;35.50;37.90
62991;DHT22;49084;48.204;16.202;2023-09-08T13:49:20;34.90;38.70
62991;DHT22;49084;48.204;16.202;2023-09-08T13:51:46;34.80;38.80
62991;DHT22;49084;48.204;16.202;2023-09-08T13:54:12;33.80;38.80
62991;DHT22;49084;48.204;16.202;2023-09-08T13:56:41;34.10;39.20
62991;DHT22;49084;48.204;16.202;2023-09-08T13:59:08;33.50;39.20
62991;DHT22;49084;48.204;16.202;2023-09-08T14:01:36;33.60;40.10
62991;DHT22;49084;48.204;16.202;2023-09-08T14:04:04;33.70;39.80
62991;DHT22;49084;48.204;16.202;2023-09-08T14:06:32;33.60;39.20
62991;DHT22;49084;48.204;16.202;2023-09-08T14:08:59;33.90;39.10
62991;DHT22;49084;48.204;16.202;2023-09-08T14:11:26;33.40;39.90
62991;DHT22;49084;48.204;16.202;2023-09-08T14:13:53;33.40;40.20
62991;DHT22;49084;48.204;16.202;2023-09-08T14:16:19;33.10;40.00
62991;DHT22;49084;48.204;16.202;2023-09-08T14:18:45;33.30;40.00
62991;DHT22;49084;48.204;16.202;2023-09-08T14:21:12;34.00;39.60
62991;DHT22;49084;48.204;16.202;2023-09-08T14:23:39;34.40;38.80
62991;DHT22;49084;48.204;16.202;2023-09-08T14:26:07;34.50;38.70
62991;DHT22;49084;48.204;16.202;2023-09-08T14:28:34;34.70;38.70
62991;DHT22;49084;48.204;16.202;2023-09-08T14:31:00;34.70;38.30
62991;DHT22;49084;48.204;16.202;2023-09-08T14:33:27;34.40;38.80
62991;DHT22;49084;48.204;16.202;2023-09-08T14:35:53;34.40;39.00
62991;DHT22;49084;48.204;16.202;2023-09-08T14:38:23;34.60;38.80
62991;DHT22;49084;48.204;16.202;2023-09-08T14:41:00;34.80;38.80
62991;DHT22;49084;48.204;16.202;2023-09-08T14:43:27;34.80;38.40
62991;DHT22;49084;48.204;16.202;2023-09-08T14:45:54;34.30;38.90
62991;DHT22;49084;48.204;16.202;2023-09-08T14:48:23;34.00;39.00
62991;DHT22;49084;48.204;16.202;2023-09-08T14:50:50;33.90;39.00
62991;DHT22;49084;48.204;16.202;2023-09-08T14:53:17;33.50;39.60
62991;DHT22;49084;48.204;16.202;2023-09-08T14:55:43;33.40;39.60
62991;DHT22;49084;48.204;16.202;2023-09-08T14:58:11;32.60;40.00
62991;DHT22;49084;48.204;16.202;2023-09-08T15:00:38;32.20;40.70
62991;DHT22;49084;48.204;16.202;2023-09-08T15:03:06;32.10;41.60
62991;DHT22;49084;48.204;16.202;2023-09-08T15:05:33;32.50;44.20
62991;DHT22;49084;48.204;16.202;2023-09-08T15:08:00;32.60;41.70
62991;DHT22;49084;48.204;16.202;2023-09-08T15:10:27;32.70;41.30
62991;DHT22;49084;48.204;16.202;2023-09-08T15:12:53;32.30;41.70
62991;DHT22;49084;48.204;16.202;2023-09-08T15:15:20;32.40;41.70
62991;DHT22;49084;48.204;16.202;2023-09-08T15:17:55;32.60;42.40
62991;DHT22;49084;48.204;16.202;2023-09-08T15:20:22;32.20;42.40
62991;DHT22;49084;48.204;16.202;2023-09-08T15:22:48;32.00;41.80